createdAt,value
2018-08-14T00:00:43.207Z,96274.48
2018-08-14T00:03:17.655Z,96296.48
2018-08-14T00:05:48.483Z,96301.03
2018-08-14T00:08:18.316Z,96316.92
2018-08-14T00:10:47.882Z,96300.92
2018-08-14T00:13:17.544Z,96308.40
2018-08-14T00:15:48.605Z,96404.03
2018-08-14T00:18:18.425Z,96304.68
2018-08-14T00:20:47.820Z,96316.00
2018-08-14T00:23:17.180Z,96282.03
2018-08-14T00:25:46.559Z,96303.35
2018-08-14T00:28:16.201Z,96315.55
2018-08-14T00:30:45.575Z,96335.27
2018-08-14T00:33:14.968Z,96325.24
2018-08-14T00:35:44.379Z,96288.00
2018-08-14T00:38:13.729Z,96291.55
2018-08-14T00:40:43.126Z,96308.24
2018-08-14T00:43:12.493Z,96325.77
2018-08-14T00:45:41.869Z,96317.72
2018-08-14T00:48:11.261Z,96331.67
2018-08-14T00:50:40.656Z,96322.66
2018-08-14T00:53:10.060Z,96305.33
2018-08-14T00:55:39.427Z,96311.05
2018-08-14T00:58:09.521Z,96184.41
2018-08-14T01:00:38.899Z,96304.11
2018-08-14T01:03:12.421Z,96289.42
2018-08-14T01:05:41.808Z,96328.65
2018-08-14T01:08:11.173Z,96302.22
2018-08-14T01:10:40.539Z,96345.02
2018-08-14T01:13:09.927Z,96355.95
2018-08-14T01:15:39.296Z,96290.56
2018-08-14T01:18:09.256Z,96215.13
2018-08-14T01:20:43.791Z,96294.63
2018-08-14T01:23:13.152Z,96296.77
2018-08-14T01:25:42.560Z,96339.25
2018-08-14T01:28:11.916Z,96328.03
2018-08-14T01:30:41.316Z,96332.92
2018-08-14T01:33:10.748Z,96340.19
2018-08-14T01:35:40.104Z,96303.03
2018-08-14T01:38:09.503Z,96298.08
2018-08-14T01:40:38.874Z,96319.77
2018-08-14T01:43:08.233Z,96328.02
2018-08-14T01:45:37.622Z,96308.23
2018-08-14T01:48:07.411Z,96313.14
2018-08-14T01:50:43.398Z,96333.66
2018-08-14T01:53:12.758Z,96327.61
2018-08-14T01:55:42.120Z,96313.64
2018-08-14T01:58:11.496Z,96306.98
2018-08-14T02:00:40.848Z,96311.37
2018-08-14T02:03:10.228Z,96303.81
2018-08-14T02:05:39.588Z,96322.70
2018-08-14T02:08:08.944Z,96311.28
2018-08-14T02:10:38.308Z,96340.96
2018-08-14T02:13:07.947Z,96323.20
2018-08-14T02:15:37.306Z,96296.45
2018-08-14T02:18:08.176Z,96317.55
2018-08-14T02:20:37.487Z,96321.01
2018-08-14T02:23:06.894Z,96312.55
2018-08-14T02:25:36.305Z,96327.22
2018-08-14T02:28:06.231Z,96330.67
2018-08-14T02:30:35.582Z,96339.92
2018-08-14T02:33:04.987Z,96320.13
2018-08-14T02:35:34.354Z,96336.88
2018-08-14T02:38:03.689Z,96330.78
2018-08-14T02:40:33.041Z,96329.02
2018-08-14T02:43:02.576Z,96329.35
2018-08-14T02:45:31.927Z,96308.38
2018-08-14T02:48:01.282Z,96316.61
2018-08-14T02:50:31.211Z,96328.58
2018-08-14T02:53:00.603Z,96320.62
2018-08-14T02:55:29.956Z,96333.47
2018-08-14T02:57:59.293Z,96336.64
2018-08-14T03:00:29.276Z,96305.73
2018-08-14T03:02:58.948Z,96318.18
2018-08-14T03:05:28.286Z,96356.16
2018-08-14T03:07:57.633Z,96362.16
2018-08-14T03:10:26.977Z,96329.70
2018-08-14T03:12:56.328Z,96339.78
2018-08-14T03:15:25.692Z,96348.79
2018-08-14T03:17:56.799Z,96342.68
2018-08-14T03:20:26.128Z,96345.55
2018-08-14T03:22:55.465Z,96363.71
2018-08-14T03:25:24.798Z,96343.27
2018-08-14T03:27:54.156Z,96339.81
2018-08-14T03:30:23.556Z,96345.61
2018-08-14T03:32:53.013Z,96354.64
2018-08-14T03:35:22.440Z,96383.88
2018-08-14T03:37:51.856Z,96344.67
2018-08-14T03:40:21.302Z,96299.94
2018-08-14T03:42:51.023Z,96345.61
2018-08-14T03:45:20.444Z,96352.25
2018-08-14T03:47:49.872Z,96357.79
2018-08-14T03:50:20.209Z,96386.27
2018-08-14T03:52:49.600Z,96368.49
2018-08-14T03:55:20.385Z,96399.36
2018-08-14T03:57:50.441Z,96347.84
2018-08-14T04:00:20.058Z,96361.22
2018-08-14T04:02:49.481Z,96376.84
2018-08-14T04:05:18.904Z,96370.51
2018-08-14T04:07:48.324Z,96394.63
2018-08-14T04:10:17.749Z,96372.28
2018-08-14T04:12:47.122Z,96424.58
2018-08-14T04:15:16.536Z,96388.30
2018-08-14T04:17:45.937Z,96401.14
2018-08-14T04:20:15.419Z,96407.63
2018-08-14T04:22:44.816Z,96396.34
2018-08-14T04:25:14.261Z,96408.76
2018-08-14T04:27:43.592Z,96293.37
2018-08-14T04:30:14.496Z,96361.09
2018-08-14T04:32:45.029Z,96405.09
2018-08-14T04:35:14.907Z,96407.93
2018-08-14T04:37:45.308Z,96409.67
2018-08-14T04:40:14.778Z,96436.11
2018-08-14T04:42:44.453Z,96434.05
2018-08-14T04:45:13.891Z,96414.98
2018-08-14T04:47:43.315Z,96422.62
2018-08-14T04:50:13.992Z,96394.08
2018-08-14T04:52:43.596Z,96442.60
2018-08-14T04:55:13.517Z,96439.90
2018-08-14T04:57:43.054Z,96454.91
2018-08-14T05:00:15.091Z,96434.59
2018-08-14T05:02:45.221Z,96435.86
2018-08-14T05:05:15.413Z,96424.17
2018-08-14T05:07:44.791Z,96454.50
2018-08-14T05:10:15.652Z,96477.66
2018-08-14T05:12:45.266Z,96463.69
2018-08-14T05:15:14.663Z,96478.97
2018-08-14T05:17:44.084Z,96472.61
2018-08-14T05:20:14.105Z,96490.81
2018-08-14T05:22:44.451Z,96470.38
2018-08-14T05:25:13.858Z,96471.47
2018-08-14T05:27:43.251Z,96480.17
2018-08-14T05:30:15.940Z,96492.21
2018-08-14T05:32:45.801Z,96492.32
2018-08-14T05:35:15.154Z,96480.27
2018-08-14T05:37:44.590Z,96501.30
2018-08-14T05:40:14.414Z,96482.33
2018-08-14T05:42:43.749Z,96477.84
2018-08-14T05:45:15.227Z,96368.54
2018-08-14T05:47:44.644Z,96473.94
2018-08-14T05:50:16.847Z,96480.00
2018-08-14T05:52:46.201Z,96497.77
2018-08-14T05:55:15.570Z,96459.01
2018-08-14T05:57:44.946Z,96497.35
2018-08-14T06:00:17.545Z,96492.03
2018-08-14T06:02:46.985Z,96501.83
2018-08-14T06:05:16.345Z,96511.57
2018-08-14T06:07:45.690Z,96497.03
2018-08-14T06:10:15.051Z,96523.09
2018-08-14T06:12:44.403Z,96534.17
2018-08-14T06:15:15.162Z,96484.78
2018-08-14T06:17:44.495Z,96517.28
2018-08-14T06:20:14.889Z,96519.56
2018-08-14T06:22:44.596Z,96521.48
2018-08-14T06:25:13.982Z,96495.92
2018-08-14T06:27:43.296Z,96470.47
2018-08-14T06:30:18.113Z,96534.19
2018-08-14T06:32:49.068Z,96513.62
2018-08-14T06:35:18.575Z,96514.13
2018-08-14T06:37:48.011Z,96517.92
2018-08-14T06:40:17.983Z,96533.76
2018-08-14T06:42:47.421Z,96525.98
2018-08-14T06:45:18.035Z,96514.44
2018-08-14T06:47:47.701Z,96527.62
2018-08-14T06:50:19.496Z,96522.72
2018-08-14T06:52:48.911Z,96522.41
2018-08-14T06:55:18.552Z,96546.95
2018-08-14T06:57:48.216Z,96552.67
2018-08-14T07:00:20.278Z,96538.13
2018-08-14T07:02:50.200Z,96532.81
2018-08-14T07:05:19.723Z,96550.42
2018-08-14T07:07:49.127Z,96569.77
2018-08-14T07:10:18.543Z,96545.19
2018-08-14T07:12:47.949Z,96532.06
2018-08-14T07:15:23.653Z,96565.34
2018-08-14T07:17:53.619Z,96570.54
2018-08-14T07:20:23.026Z,96641.72
2018-08-14T07:22:52.480Z,96527.63
2018-08-14T07:25:22.436Z,96563.82
2018-08-14T07:27:51.945Z,96568.41
2018-08-14T07:30:23.596Z,96551.36
2018-08-14T07:32:53.043Z,96570.81
2018-08-14T07:35:22.456Z,96563.68
2018-08-14T07:37:51.868Z,96557.90
2018-08-14T07:40:21.298Z,96571.17
2018-08-14T07:42:50.703Z,96559.10
2018-08-14T07:45:20.118Z,96571.34
2018-08-14T07:47:49.546Z,96556.92
2018-08-14T07:50:18.954Z,96593.45
2018-08-14T07:52:48.393Z,96584.92
2018-08-14T07:55:17.781Z,96553.12
2018-08-14T07:57:47.202Z,96584.69
2018-08-14T08:00:19.756Z,96576.22
2018-08-14T08:02:50.080Z,96618.84
2018-08-14T08:05:19.993Z,96584.31
2018-08-14T08:07:49.900Z,96575.62
2018-08-14T08:10:19.576Z,96566.88
2018-08-14T08:12:49.343Z,96587.12
2018-08-14T08:15:19.859Z,96583.84
2018-08-14T08:17:49.555Z,96574.56
2018-08-14T08:20:28.665Z,96574.03
2018-08-14T08:22:58.436Z,96589.84
2018-08-14T08:25:28.584Z,96583.11
2018-08-14T08:27:58.737Z,96589.58
2018-08-14T08:30:28.256Z,96572.55
2018-08-14T08:32:57.662Z,96592.05
2018-08-14T08:35:27.768Z,96590.31
2018-08-14T08:37:57.755Z,96573.34
2018-08-14T08:40:27.215Z,96582.59
2018-08-14T08:42:56.641Z,96581.77
2018-08-14T08:45:26.052Z,96366.62
2018-08-14T08:48:14.364Z,96576.73
2018-08-14T08:50:43.767Z,96614.15
2018-08-14T08:53:13.995Z,96585.05
2018-08-14T08:55:43.418Z,96619.13
2018-08-14T08:58:12.896Z,96576.53
2018-08-14T09:00:42.218Z,96747.23
2018-08-14T09:03:11.611Z,96567.16
2018-08-14T09:05:41.026Z,96597.82
2018-08-14T09:08:13.436Z,96592.79
2018-08-14T09:10:42.900Z,96612.03
2018-08-14T09:13:15.000Z,96590.33
2018-08-14T09:15:44.421Z,96597.25
2018-08-14T09:18:13.904Z,96604.92
2018-08-14T09:20:43.255Z,96584.94
2018-08-14T09:23:12.657Z,96628.83
2018-08-14T09:25:42.048Z,96622.15
2018-08-14T09:28:11.440Z,96600.89
2018-08-14T09:30:40.772Z,96605.56
2018-08-14T09:33:10.129Z,96610.48
2018-08-14T09:35:39.477Z,96610.84
2018-08-14T09:38:08.828Z,96610.27
2018-08-14T09:40:47.401Z,96582.98
2018-08-14T09:43:16.736Z,96592.20
2018-08-14T09:45:47.350Z,96595.80
2018-08-14T09:48:16.694Z,96480.30
2018-08-14T09:50:46.044Z,96579.64
2018-08-14T09:53:15.367Z,96567.78
2018-08-14T09:55:44.707Z,96580.81
2018-08-14T09:58:15.125Z,96598.91
2018-08-14T10:00:49.737Z,96576.84
2018-08-14T10:03:24.237Z,96602.67
2018-08-14T10:05:58.914Z,96590.47
2018-08-14T10:08:28.277Z,96617.55
2018-08-14T10:10:57.610Z,96629.88
2018-08-14T10:13:26.972Z,96643.83
2018-08-14T10:15:56.293Z,96623.46
2018-08-14T10:18:26.694Z,96618.06
2018-08-14T10:20:56.074Z,96603.49
2018-08-14T10:23:28.612Z,96608.84
2018-08-14T10:25:57.985Z,96608.84
2018-08-14T10:28:27.314Z,96625.45
2018-08-14T10:30:56.819Z,96623.75
2018-08-14T10:33:26.203Z,96601.66
2018-08-14T10:35:55.634Z,96594.06
2018-08-14T10:38:25.023Z,96602.79
2018-08-14T10:40:54.416Z,96592.70
2018-08-14T10:43:23.804Z,96622.77
2018-08-14T10:45:53.222Z,96618.89
2018-08-14T10:48:22.607Z,96637.75
2018-08-14T10:50:51.997Z,96611.02
2018-08-14T10:53:21.436Z,96614.44
2018-08-14T10:55:50.837Z,96614.49
2018-08-14T10:58:20.246Z,96617.55
2018-08-14T11:00:49.644Z,96587.92
2018-08-14T11:03:19.068Z,96591.80
2018-08-14T11:05:48.469Z,96611.43
2018-08-14T11:08:17.884Z,96608.89
2018-08-14T11:10:52.462Z,96610.95
2018-08-14T11:13:21.895Z,96500.48
2018-08-14T11:15:51.256Z,96607.11
2018-08-14T11:18:20.664Z,96606.03
2018-08-14T11:20:50.071Z,96623.11
2018-08-14T11:23:19.475Z,96620.70
2018-08-14T11:25:48.844Z,96584.88
2018-08-14T11:28:18.245Z,96621.50
2018-08-14T11:30:47.644Z,96609.70
2018-08-14T11:33:17.058Z,96635.49
2018-08-14T11:35:51.735Z,96600.25
2018-08-14T11:38:21.152Z,96601.66
2018-08-14T11:40:50.547Z,96581.63
2018-08-14T11:43:19.965Z,96616.71
2018-08-14T11:45:49.370Z,96609.20
2018-08-14T11:48:18.789Z,96599.70
2018-08-14T11:50:48.257Z,96607.06
2018-08-14T11:53:17.580Z,96602.59
2018-08-14T11:55:46.981Z,96571.44
2018-08-14T11:58:16.372Z,96621.09
2018-08-14T12:00:45.759Z,96621.80
2018-08-14T12:03:15.166Z,96632.06
2018-08-14T12:05:44.576Z,96604.13
2018-08-14T12:08:13.979Z,96595.94
2018-08-14T12:10:43.394Z,96607.39
2018-08-14T12:13:12.784Z,96613.97
2018-08-14T12:15:42.172Z,96640.00
2018-08-14T12:18:11.581Z,96611.03
2018-08-14T12:20:40.967Z,96613.00
2018-08-14T12:23:10.369Z,96653.58
2018-08-14T12:25:39.773Z,96622.67
2018-08-14T12:28:09.199Z,96618.73
2018-08-14T12:30:38.570Z,96603.26
2018-08-14T12:33:07.921Z,96634.02
2018-08-14T12:35:37.256Z,96634.56
2018-08-14T12:38:06.592Z,96644.80
2018-08-14T12:40:35.922Z,96660.28
2018-08-14T12:43:06.384Z,96595.00
2018-08-14T12:45:35.829Z,96629.24
2018-08-14T12:48:05.437Z,96631.33
2018-08-14T12:50:34.786Z,96638.77
2018-08-14T12:53:04.129Z,96623.59
2018-08-14T12:55:33.468Z,96610.79
2018-08-14T12:58:02.801Z,96605.11
2018-08-14T13:00:32.139Z,96626.27
2018-08-14T13:03:01.497Z,96645.84
2018-08-14T13:05:30.832Z,96608.66
2018-08-14T13:08:00.214Z,96630.72
2018-08-14T13:10:29.538Z,96638.96
2018-08-14T13:12:58.852Z,96638.84
2018-08-14T13:15:28.196Z,96656.86
2018-08-14T13:18:04.969Z,96624.22
2018-08-14T13:20:34.362Z,96614.55
2018-08-14T13:23:03.708Z,96632.22
2018-08-14T13:25:33.097Z,96633.76
2018-08-14T13:28:02.431Z,96635.95
2018-08-14T13:30:32.483Z,96629.53
2018-08-14T13:33:01.878Z,96645.00
2018-08-14T13:35:31.269Z,96651.41
2018-08-14T13:38:00.681Z,96618.55
2018-08-14T13:40:30.098Z,96663.47
2018-08-14T13:42:59.492Z,96615.98
2018-08-14T13:45:28.893Z,96627.70
2018-08-14T13:47:58.318Z,96622.53
2018-08-14T13:50:27.679Z,96633.78
2018-08-14T13:52:57.068Z,96645.63
2018-08-14T13:55:26.460Z,96649.80
2018-08-14T13:57:55.843Z,96643.42
2018-08-14T14:00:27.362Z,96634.61
2018-08-14T14:02:56.868Z,96655.71
2018-08-14T14:05:26.274Z,96659.31
2018-08-14T14:07:55.664Z,96659.11
2018-08-14T14:10:25.128Z,96648.34
2018-08-14T14:12:54.507Z,96636.05
2018-08-14T14:15:25.109Z,96620.55
2018-08-14T14:17:55.323Z,96660.50
2018-08-14T14:20:29.025Z,96660.38
2018-08-14T14:22:58.468Z,96657.07
2018-08-14T14:25:27.874Z,96657.89
2018-08-14T14:27:57.288Z,96662.13
2018-08-14T14:30:26.636Z,96710.86
2018-08-14T14:32:55.976Z,96632.78
2018-08-14T14:35:25.335Z,96680.11
2018-08-14T14:37:54.672Z,96671.33
2018-08-14T14:40:26.902Z,96666.16
2018-08-14T14:43:00.733Z,96677.66
2018-08-14T14:45:30.128Z,96652.24
2018-08-14T14:47:59.471Z,96678.14
2018-08-14T14:50:28.831Z,96640.69
2018-08-14T14:52:59.105Z,96657.67
2018-08-14T14:55:28.464Z,96664.12
2018-08-14T14:57:57.808Z,96667.20
2018-08-14T15:00:31.224Z,96693.35
2018-08-14T15:03:00.557Z,96684.61
2018-08-14T15:05:30.136Z,96691.27
2018-08-14T15:07:59.483Z,96688.70
2018-08-14T15:10:28.823Z,96681.18
2018-08-14T15:12:58.161Z,96679.77
2018-08-14T15:15:27.512Z,96680.77
2018-08-14T15:17:56.856Z,96685.70
2018-08-14T15:20:27.377Z,96717.14
2018-08-14T15:22:58.420Z,96697.07
2018-08-14T15:25:28.238Z,96679.98
2018-08-14T15:29:06.544Z,96688.25
2018-08-14T15:31:37.946Z,96718.26
2018-08-14T15:34:11.445Z,96683.78
2018-08-14T15:36:41.158Z,96724.96
2018-08-14T15:39:12.505Z,96663.53
2018-08-14T15:41:42.340Z,96683.72
2018-08-14T15:44:12.229Z,96691.20
2018-08-14T15:46:41.748Z,96705.41
2018-08-14T15:49:11.835Z,96697.89
2018-08-14T15:51:42.088Z,96714.73
2018-08-14T15:54:13.059Z,96717.19
2018-08-14T15:56:42.777Z,96704.38
2018-08-14T15:59:12.489Z,96690.05
2018-08-14T16:01:41.946Z,96702.84
2018-08-14T16:04:13.440Z,96743.62
2018-08-14T16:06:42.855Z,96713.89
2018-08-14T16:09:16.099Z,96703.16
2018-08-14T16:11:46.407Z,96729.69
2018-08-14T16:14:15.877Z,96714.56
2018-08-14T16:16:45.329Z,96712.62
2018-08-14T16:19:15.927Z,96718.26
2018-08-14T16:21:45.352Z,96704.30
2018-08-14T16:24:16.836Z,96706.10
2018-08-14T16:26:46.244Z,96620.23
2018-08-14T16:29:15.639Z,96718.72
2018-08-14T16:31:45.053Z,96702.50
2018-08-14T16:34:14.503Z,96704.23
2018-08-14T16:36:43.904Z,96681.59
2018-08-14T16:39:13.872Z,96736.38
2018-08-14T16:41:43.261Z,96719.34
2018-08-14T16:44:12.655Z,96602.74
2018-08-14T16:46:42.190Z,96724.63
2018-08-14T16:49:11.519Z,96736.22
2018-08-14T16:51:40.933Z,96727.95
2018-08-14T16:54:10.332Z,96725.20
2018-08-14T16:56:39.731Z,96749.58
2018-08-14T16:59:09.127Z,96746.27
2018-08-14T17:01:38.568Z,96717.26
2018-08-14T17:04:09.166Z,96733.16
2018-08-14T17:06:38.544Z,96714.66
2018-08-14T17:09:09.232Z,96719.22
2018-08-14T17:11:38.645Z,96726.11
2018-08-14T17:14:09.284Z,96721.05
2018-08-14T17:16:38.687Z,96752.39
2018-08-14T17:19:08.107Z,96710.83
2018-08-14T17:21:35.947Z,96729.31
2018-08-14T17:24:05.349Z,96724.78
2018-08-14T17:26:34.760Z,96726.27
2018-08-14T17:29:04.165Z,96731.47
2018-08-14T17:31:33.534Z,96733.91
2018-08-14T17:34:02.869Z,96736.22
2018-08-14T17:36:32.209Z,96742.83
2018-08-14T17:39:01.607Z,96728.05
2018-08-14T17:41:30.885Z,96735.20
2018-08-14T17:44:00.255Z,96730.63
2018-08-14T17:46:29.708Z,96729.55
2018-08-14T17:48:59.050Z,96733.23
2018-08-14T17:51:28.437Z,96721.44
2018-08-14T17:53:57.767Z,96743.64
2018-08-14T17:56:27.312Z,96757.62
2018-08-14T17:58:56.669Z,96766.52
2018-08-14T18:01:26.013Z,96755.80
2018-08-14T18:03:55.421Z,96774.39
2018-08-14T18:06:24.747Z,96744.47
2018-08-14T18:08:54.101Z,96779.59
2018-08-14T18:11:23.430Z,96778.23
2018-08-14T18:13:52.747Z,96785.82
2018-08-14T18:16:22.209Z,96765.28
2018-08-14T18:18:51.533Z,96768.30
2018-08-14T18:21:20.865Z,96776.91
2018-08-14T18:23:50.224Z,96770.91
2018-08-14T18:26:19.548Z,96787.80
2018-08-14T18:28:48.893Z,96950.05
2018-08-14T18:31:18.319Z,96814.47
2018-08-14T18:33:47.750Z,96807.84
2018-08-14T18:36:17.148Z,96794.94
2018-08-14T18:38:46.564Z,96792.63
2018-08-14T18:41:15.957Z,96788.25
2018-08-14T18:43:45.365Z,96788.19
2018-08-14T18:46:14.753Z,96762.22
2018-08-14T18:48:44.132Z,96818.12
2018-08-14T18:51:13.535Z,96836.47
2018-08-14T18:53:42.955Z,96843.83
2018-08-14T18:56:12.350Z,96851.74
2018-08-14T18:58:41.732Z,96835.81
2018-08-14T19:01:11.129Z,96826.59
2018-08-14T19:03:40.528Z,96849.23
2018-08-14T19:06:10.432Z,96864.50
2018-08-14T19:08:39.838Z,96742.05
2018-08-14T19:11:09.265Z,96748.69
2018-08-14T19:13:38.659Z,96849.38
2018-08-14T19:16:09.536Z,96874.47
2018-08-14T19:18:38.928Z,96852.41
2018-08-14T19:21:08.678Z,96848.53
2018-08-14T19:23:38.060Z,96756.93
2018-08-14T19:26:07.701Z,96874.67
2018-08-14T19:28:37.083Z,96876.37
2018-08-14T19:31:06.453Z,96872.11
2018-08-14T19:33:35.826Z,96865.48
2018-08-14T19:36:05.199Z,96835.27
2018-08-14T19:38:34.535Z,96855.19
2018-08-14T19:41:03.907Z,96861.91
2018-08-14T19:43:33.250Z,96894.70
2018-08-14T19:46:02.609Z,96849.49
2018-08-14T19:48:32.032Z,96861.80
2018-08-14T19:51:01.387Z,96864.20
2018-08-14T19:53:30.737Z,96867.08
2018-08-14T19:56:00.081Z,96869.10
2018-08-14T19:58:29.516Z,96850.34
2018-08-14T20:00:58.893Z,96897.59
2018-08-14T20:03:28.243Z,96854.72
2018-08-14T20:05:57.594Z,96881.55
2018-08-14T20:08:26.923Z,96882.09
2018-08-14T20:10:56.267Z,96898.84
2018-08-14T20:13:25.610Z,96895.86
2018-08-14T20:16:13.284Z,96883.58
2018-08-14T20:18:42.631Z,96903.69
2018-08-14T20:21:11.980Z,96900.03
2018-08-14T20:23:41.325Z,96907.92
2018-08-14T20:26:10.679Z,96888.05
2018-08-14T20:28:39.991Z,96891.13
2018-08-14T20:31:09.391Z,96902.22
2018-08-14T20:33:38.733Z,96884.48
2018-08-14T20:41:05.616Z,96905.29
2018-08-14T20:43:34.946Z,96902.91
2018-08-14T20:46:04.316Z,96902.30
2018-08-14T20:48:33.647Z,96899.11
2018-08-14T20:51:03.009Z,96916.19
2018-08-14T20:53:32.366Z,96869.77
2018-08-14T20:56:01.717Z,96899.55
2018-08-14T20:58:31.058Z,96922.61
2018-08-14T21:01:00.407Z,96880.80
2018-08-14T21:03:29.786Z,96906.15
2018-08-14T21:05:59.198Z,96916.38
2018-08-14T21:08:35.141Z,96928.89
2018-08-14T21:11:04.481Z,96910.10
2018-08-14T21:13:33.832Z,96914.75
2018-08-14T21:16:33.688Z,96889.95
2018-08-14T21:19:03.040Z,96933.38
2018-08-14T21:21:32.393Z,96906.92
2018-08-14T21:24:01.734Z,96910.13
2018-08-14T21:26:31.068Z,96930.61
2018-08-14T21:29:00.416Z,96904.86
2018-08-14T21:31:29.826Z,96912.10
2018-08-14T21:33:59.233Z,96941.42
2018-08-14T21:36:28.630Z,96940.17
2018-08-14T21:38:58.030Z,96936.87
2018-08-14T21:41:27.431Z,96934.48
2018-08-14T21:43:56.869Z,96961.27
2018-08-14T21:46:26.230Z,96939.08
2018-08-14T21:48:55.632Z,96935.73
2018-08-14T21:51:25.028Z,96921.50
2018-08-14T21:53:54.434Z,96929.88
2018-08-14T21:56:23.849Z,96920.72
2018-08-14T21:58:53.255Z,96908.97
2018-08-14T22:01:22.672Z,96944.82
2018-08-14T22:03:52.079Z,96934.64
2018-08-14T22:06:21.483Z,96949.63
2018-08-14T22:08:50.889Z,96935.36
2018-08-14T22:11:20.312Z,96938.06
2018-08-14T22:13:49.724Z,96973.38
2018-08-14T22:16:19.111Z,96917.64
2018-08-14T22:18:48.509Z,96928.95
2018-08-14T22:21:17.977Z,96931.72
2018-08-14T22:23:47.388Z,96944.02
2018-08-14T22:26:16.812Z,96954.89
2018-08-14T22:28:46.241Z,96950.98
2018-08-14T22:31:15.688Z,96942.52
2018-08-14T22:33:45.088Z,96946.83
2018-08-14T22:36:14.502Z,96948.47
2018-08-14T22:38:43.922Z,96951.38
2018-08-14T22:41:13.348Z,96960.56
2018-08-14T22:43:42.746Z,96985.78
2018-08-14T22:46:12.155Z,96958.84
2018-08-14T22:48:41.601Z,96954.14
2018-08-14T22:51:11.016Z,96964.47
2018-08-14T22:53:40.411Z,96966.23
2018-08-14T22:56:09.807Z,96969.06
2018-08-14T22:58:39.201Z,96978.93
2018-08-14T23:01:08.616Z,96977.28
2018-08-14T23:03:38.018Z,96988.06
2018-08-14T23:06:08.649Z,96979.48
2018-08-14T23:08:38.049Z,96980.34
2018-08-14T23:11:07.922Z,97001.47
2018-08-14T23:13:37.444Z,96977.06
2018-08-14T23:16:06.793Z,96964.12
2018-08-14T23:18:37.106Z,96985.43
2018-08-14T23:21:07.122Z,96975.50
2018-08-14T23:23:36.620Z,96884.45
2018-08-14T23:26:06.127Z,96976.98
2018-08-14T23:28:35.475Z,96987.81
2018-08-14T23:31:04.836Z,96948.50
2018-08-14T23:33:34.179Z,96968.52
2018-08-14T23:36:03.513Z,96989.14
2018-08-14T23:38:32.852Z,96980.31
2018-08-14T23:41:02.190Z,96981.25
2018-08-14T23:43:31.526Z,96976.28
2018-08-14T23:46:01.011Z,96968.42
2018-08-14T23:48:30.596Z,96957.27
2018-08-14T23:50:59.941Z,96965.07
2018-08-14T23:53:29.280Z,96968.13
2018-08-14T23:55:58.628Z,96957.71
2018-08-14T23:58:27.957Z,96997.92
